Aviation Digital Data Service (ADDS)

Output produced by METARs form (0127 UTC 01 August 2015)
found at http://aviationweather.gov/adds/metars/
 
KCLE 312350Z 0100/0206 24010KT P6SM VCSH SCT050 BKN110 
     FM010200 25008KT P6SM FEW080 
     FM011600 28012G20KT P6SM SCT050 
     FM020000 26008KT P6SM FEW050